sensor_id;sensor_type;location;lat;lon;timestamp;pressure;altitude;pressure_sealevel;temperature;humidity
4469;BME280;2247;42.666;23.292;2023-02-23T00:01:23;94218.94;;;13.59;46.54
4469;BME280;2247;42.666;23.292;2023-02-23T00:03:52;94226.00;;;13.64;46.00
4469;BME280;2247;42.666;23.292;2023-02-23T00:06:19;94225.31;;;13.58;47.40
4469;BME280;2247;42.666;23.292;2023-02-23T00:08:46;94220.22;;;13.62;46.00
4469;BME280;2247;42.666;23.292;2023-02-23T00:11:15;94225.31;;;13.58;46.97
4469;BME280;2247;42.666;23.292;2023-02-23T00:13:44;94230.50;;;13.63;47.87
4469;BME280;2247;42.666;23.292;2023-02-23T00:16:12;94229.13;;;13.52;48.91
4469;BME280;2247;42.666;23.292;2023-02-23T00:18:42;94228.63;;;13.50;48.77
4469;BME280;2247;42.666;23.292;2023-02-23T00:21:14;94237.47;;;13.46;50.23
4469;BME280;2247;42.666;23.292;2023-02-23T00:23:42;94233.53;;;13.43;49.08
4469;BME280;2247;42.666;23.292;2023-02-23T00:26:10;94238.91;;;13.38;48.07
4469;BME280;2247;42.666;23.292;2023-02-23T00:28:40;94227.34;;;13.34;49.00
4469;BME280;2247;42.666;23.292;2023-02-23T00:31:09;94235.34;;;13.29;49.34
4469;BME280;2247;42.666;23.292;2023-02-23T00:33:37;94233.78;;;13.28;49.84
4469;BME280;2247;42.666;23.292;2023-02-23T00:36:06;94233.59;;;13.24;50.31
4469;BME280;2247;42.666;23.292;2023-02-23T00:38:35;94231.94;;;13.10;50.83
4469;BME280;2247;42.666;23.292;2023-02-23T00:41:06;94237.06;;;13.06;49.42
4469;BME280;2247;42.666;23.292;2023-02-23T00:43:35;94235.91;;;12.93;51.38
4469;BME280;2247;42.666;23.292;2023-02-23T00:46:03;94237.00;;;12.92;51.84
4469;BME280;2247;42.666;23.292;2023-02-23T00:48:34;94232.00;;;12.91;49.27
4469;BME280;2247;42.666;23.292;2023-02-23T00:51:04;94229.91;;;12.88;51.02
4469;BME280;2247;42.666;23.292;2023-02-23T00:53:31;94224.25;;;12.94;49.75
4469;BME280;2247;42.666;23.292;2023-02-23T00:55:58;94232.69;;;12.96;49.82
4469;BME280;2247;42.666;23.292;2023-02-23T00:58:26;94215.31;;;12.58;49.87
4469;BME280;2247;42.666;23.292;2023-02-23T01:00:53;94225.03;;;12.44;50.86
4469;BME280;2247;42.666;23.292;2023-02-23T01:03:20;94221.09;;;12.22;51.95
4469;BME280;2247;42.666;23.292;2023-02-23T01:05:48;94227.44;;;12.21;51.94
4469;BME280;2247;42.666;23.292;2023-02-23T01:08:16;94205.59;;;12.16;50.82
4469;BME280;2247;42.666;23.292;2023-02-23T01:10:44;94232.47;;;12.42;51.92
4469;BME280;2247;42.666;23.292;2023-02-23T01:13:18;94233.88;;;12.53;51.62
4469;BME280;2247;42.666;23.292;2023-02-23T01:15:45;94231.19;;;12.58;50.96
4469;BME280;2247;42.666;23.292;2023-02-23T01:18:14;94228.47;;;12.63;52.36
4469;BME280;2247;42.666;23.292;2023-02-23T01:20:42;94226.88;;;12.62;52.08
4469;BME280;2247;42.666;23.292;2023-02-23T01:23:11;94233.56;;;12.73;52.61
4469;BME280;2247;42.666;23.292;2023-02-23T01:25:39;94230.88;;;12.78;50.58
4469;BME280;2247;42.666;23.292;2023-02-23T01:28:07;94228.50;;;12.77;49.32
4469;BME280;2247;42.666;23.292;2023-02-23T01:30:34;94226.06;;;12.80;50.18
4469;BME280;2247;42.666;23.292;2023-02-23T01:33:01;94227.72;;;12.76;49.46
4469;BME280;2247;42.666;23.292;2023-02-23T01:35:29;94229.09;;;12.55;51.76
4469;BME280;2247;42.666;23.292;2023-02-23T01:37:57;94231.94;;;12.40;52.58
4469;BME280;2247;42.666;23.292;2023-02-23T01:40:26;94231.81;;;12.50;50.90
4469;BME280;2247;42.666;23.292;2023-02-23T01:42:57;94231.03;;;12.49;51.78
4469;BME280;2247;42.666;23.292;2023-02-23T01:45:30;94223.66;;;12.46;52.12
4469;BME280;2247;42.666;23.292;2023-02-23T01:48:02;94224.38;;;12.52;49.76
4469;BME280;2247;42.666;23.292;2023-02-23T01:50:36;94220.59;;;12.58;51.19
4469;BME280;2247;42.666;23.292;2023-02-23T01:53:04;94217.09;;;12.62;51.02
4469;BME280;2247;42.666;23.292;2023-02-23T01:55:33;94218.88;;;12.67;50.67
4469;BME280;2247;42.666;23.292;2023-02-23T01:58:05;94215.16;;;12.68;52.51
4469;BME280;2247;42.666;23.292;2023-02-23T02:00:36;94213.81;;;12.71;50.82
4469;BME280;2247;42.666;23.292;2023-02-23T02:03:08;94216.72;;;12.69;50.87
4469;BME280;2247;42.666;23.292;2023-02-23T02:05:38;94220.44;;;12.68;49.75
4469;BME280;2247;42.666;23.292;2023-02-23T02:08:07;94214.09;;;12.69;50.70
4469;BME280;2247;42.666;23.292;2023-02-23T02:10:37;94208.88;;;12.64;50.59
4469;BME280;2247;42.666;23.292;2023-02-23T02:13:17;94214.81;;;12.56;52.67
4469;BME280;2247;42.666;23.292;2023-02-23T02:16:02;94202.31;;;12.43;53.00
4469;BME280;2247;42.666;23.292;2023-02-23T02:18:34;94206.47;;;12.49;50.82
4469;BME280;2247;42.666;23.292;2023-02-23T02:24:39;94217.59;;;12.46;52.41
4469;BME280;2247;42.666;23.292;2023-02-23T02:27:33;94215.53;;;12.43;53.12
4469;BME280;2247;42.666;23.292;2023-02-23T02:30:31;94222.97;;;12.41;52.42
4469;BME280;2247;42.666;23.292;2023-02-23T02:36:21;94200.09;;;12.69;48.82
4469;BME280;2247;42.666;23.292;2023-02-23T02:39:00;94215.88;;;12.55;48.87
4469;BME280;2247;42.666;23.292;2023-02-23T02:41:41;94220.19;;;12.51;48.97
4469;BME280;2247;42.666;23.292;2023-02-23T02:44:21;94217.03;;;12.49;48.40
4469;BME280;2247;42.666;23.292;2023-02-23T02:46:56;94220.88;;;12.38;48.58
4469;BME280;2247;42.666;23.292;2023-02-23T02:49:28;94206.50;;;12.06;50.01
4469;BME280;2247;42.666;23.292;2023-02-23T02:52:01;94210.22;;;12.05;50.80
4469;BME280;2247;42.666;23.292;2023-02-23T02:54:35;94213.13;;;12.04;52.14
4469;BME280;2247;42.666;23.292;2023-02-23T02:57:04;94210.44;;;12.09;52.06
4469;BME280;2247;42.666;23.292;2023-02-23T02:59:41;94213.66;;;12.06;51.96
4469;BME280;2247;42.666;23.292;2023-02-23T03:02:26;94214.28;;;11.98;53.36
4469;BME280;2247;42.666;23.292;2023-02-23T03:05:14;94209.28;;;11.96;53.98
4469;BME280;2247;42.666;23.292;2023-02-23T03:08:08;94210.75;;;11.83;53.24
4469;BME280;2247;42.666;23.292;2023-02-23T03:11:00;94208.41;;;11.82;52.14
4469;BME280;2247;42.666;23.292;2023-02-23T03:13:54;94212.31;;;11.84;51.77
4469;BME280;2247;42.666;23.292;2023-02-23T03:16:49;94218.97;;;11.82;51.37
4469;BME280;2247;42.666;23.292;2023-02-23T03:19:47;94218.03;;;11.92;51.88
4469;BME280;2247;42.666;23.292;2023-02-23T03:22:42;94216.25;;;11.87;51.52
4469;BME280;2247;42.666;23.292;2023-02-23T03:25:34;94219.06;;;11.96;51.26
4469;BME280;2247;42.666;23.292;2023-02-23T03:28:31;94198.69;;;11.77;52.98
4469;BME280;2247;42.666;23.292;2023-02-23T03:31:22;94228.78;;;12.00;55.27
4469;BME280;2247;42.666;23.292;2023-02-23T03:34:13;94223.59;;;11.90;53.08
4469;BME280;2247;42.666;23.292;2023-02-23T03:37:05;94226.25;;;11.90;53.15
4469;BME280;2247;42.666;23.292;2023-02-23T03:39:58;94229.41;;;11.92;52.49
4469;BME280;2247;42.666;23.292;2023-02-23T03:42:46;94234.13;;;11.95;54.15
4469;BME280;2247;42.666;23.292;2023-02-23T03:45:34;94237.84;;;11.94;53.08
4469;BME280;2247;42.666;23.292;2023-02-23T03:48:21;94244.69;;;11.95;52.71
4469;BME280;2247;42.666;23.292;2023-02-23T03:51:08;94238.44;;;11.86;53.20
4469;BME280;2247;42.666;23.292;2023-02-23T03:53:58;94234.38;;;11.70;54.04
4469;BME280;2247;42.666;23.292;2023-02-23T03:56:45;94245.13;;;11.55;55.95
4469;BME280;2247;42.666;23.292;2023-02-23T03:59:35;94248.19;;;11.62;55.21
4469;BME280;2247;42.666;23.292;2023-02-23T04:02:24;94253.50;;;11.57;55.06
4469;BME280;2247;42.666;23.292;2023-02-23T04:05:12;94254.53;;;11.61;54.04
4469;BME280;2247;42.666;23.292;2023-02-23T04:08:01;94251.44;;;11.54;53.35
4469;BME280;2247;42.666;23.292;2023-02-23T04:10:49;94248.75;;;11.59;53.72
4469;BME280;2247;42.666;23.292;2023-02-23T04:13:38;94249.63;;;11.49;53.99
4469;BME280;2247;42.666;23.292;2023-02-23T04:16:06;94258.00;;;11.56;54.18
4469;BME280;2247;42.666;23.292;2023-02-23T04:18:36;94246.66;;;11.56;53.73
4469;BME280;2247;42.666;23.292;2023-02-23T04:21:05;94243.53;;;11.54;55.00
4469;BME280;2247;42.666;23.292;2023-02-23T04:23:33;94240.91;;;11.54;53.86
4469;BME280;2247;42.666;23.292;2023-02-23T04:26:00;94238.19;;;11.59;54.73
4469;BME280;2247;42.666;23.292;2023-02-23T04:28:29;94242.69;;;11.58;53.82
4469;BME280;2247;42.666;23.292;2023-02-23T04:33:30;94238.94;;;11.64;54.39
4469;BME280;2247;42.666;23.292;2023-02-23T04:36:01;94236.00;;;11.66;52.80
4469;BME280;2247;42.666;23.292;2023-02-23T04:38:28;94243.47;;;11.59;52.66
4469;BME280;2247;42.666;23.292;2023-02-23T04:40:55;94246.00;;;11.69;54.06
4469;BME280;2247;42.666;23.292;2023-02-23T04:43:22;94252.84;;;11.75;51.75
4469;BME280;2247;42.666;23.292;2023-02-23T04:45:49;94253.63;;;11.75;54.62
4469;BME280;2247;42.666;23.292;2023-02-23T04:48:17;94232.91;;;11.59;54.48
4469;BME280;2247;42.666;23.292;2023-02-23T04:50:44;94247.03;;;11.73;52.89
4469;BME280;2247;42.666;23.292;2023-02-23T04:53:13;94249.41;;;11.69;52.44
4469;BME280;2247;42.666;23.292;2023-02-23T04:55:41;94225.34;;;11.52;53.81
4469;BME280;2247;42.666;23.292;2023-02-23T04:58:14;94247.09;;;11.68;54.87
4469;BME280;2247;42.666;23.292;2023-02-23T05:55:14;94282.47;;;10.11;58.30
4469;BME280;2247;42.666;23.292;2023-02-23T05:57:47;94275.06;;;10.28;58.19
4469;BME280;2247;42.666;23.292;2023-02-23T06:00:33;94292.19;;;10.75;58.19
4469;BME280;2247;42.666;23.292;2023-02-23T06:03:00;94308.69;;;11.24;57.73
4469;BME280;2247;42.666;23.292;2023-02-23T06:05:27;94304.28;;;11.77;58.34
4469;BME280;2247;42.666;23.292;2023-02-23T06:07:55;94304.13;;;12.16;55.99
4469;BME280;2247;42.666;23.292;2023-02-23T06:10:24;94304.41;;;12.57;52.96
4469;BME280;2247;42.666;23.292;2023-02-23T06:12:52;94314.69;;;12.96;55.01
4469;BME280;2247;42.666;23.292;2023-02-23T06:15:20;94294.31;;;13.16;51.38
4469;BME280;2247;42.666;23.292;2023-02-23T06:17:48;94307.34;;;13.45;51.20
4469;BME280;2247;42.666;23.292;2023-02-23T06:20:15;94313.09;;;13.65;49.30
4469;BME280;2247;42.666;23.292;2023-02-23T06:22:41;94306.88;;;13.89;48.77
4469;BME280;2247;42.666;23.292;2023-02-23T06:25:09;94304.81;;;14.13;48.41
4469;BME280;2247;42.666;23.292;2023-02-23T06:27:39;94303.31;;;14.34;47.90
4469;BME280;2247;42.666;23.292;2023-02-23T06:30:10;94303.81;;;14.64;48.12
4469;BME280;2247;42.666;23.292;2023-02-23T06:32:38;94314.88;;;14.93;49.64
4469;BME280;2247;42.666;23.292;2023-02-23T06:35:06;94314.56;;;15.17;45.56
4469;BME280;2247;42.666;23.292;2023-02-23T06:37:36;94309.25;;;15.17;45.55
4469;BME280;2247;42.666;23.292;2023-02-23T06:40:06;94312.88;;;15.43;44.43
4469;BME280;2247;42.666;23.292;2023-02-23T06:42:33;94309.72;;;15.55;44.66
4469;BME280;2247;42.666;23.292;2023-02-23T06:45:04;94329.41;;;15.85;44.41
4469;BME280;2247;42.666;23.292;2023-02-23T06:47:32;94318.75;;;15.76;44.16
4469;BME280;2247;42.666;23.292;2023-02-23T06:49:59;94314.06;;;16.04;42.40
4469;BME280;2247;42.666;23.292;2023-02-23T06:52:28;94311.41;;;16.12;43.57
4469;BME280;2247;42.666;23.292;2023-02-23T06:54:56;94325.56;;;16.30;46.06
4469;BME280;2247;42.666;23.292;2023-02-23T06:57:23;94314.91;;;16.22;44.88
4469;BME280;2247;42.666;23.292;2023-02-23T06:59:50;94321.88;;;16.48;42.34
4469;BME280;2247;42.666;23.292;2023-02-23T07:02:20;94311.22;;;16.48;41.60
4469;BME280;2247;42.666;23.292;2023-02-23T07:04:48;94313.50;;;16.64;41.42
4469;BME280;2247;42.666;23.292;2023-02-23T07:07:15;94316.56;;;16.57;40.50
4469;BME280;2247;42.666;23.292;2023-02-23T07:09:41;94308.56;;;16.48;40.41
4469;BME280;2247;42.666;23.292;2023-02-23T07:12:09;94296.00;;;16.32;40.73
4469;BME280;2247;42.666;23.292;2023-02-23T07:14:38;94317.66;;;16.08;40.24
4469;BME280;2247;42.666;23.292;2023-02-23T07:17:05;94326.84;;;15.71;40.95
4469;BME280;2247;42.666;23.292;2023-02-23T07:19:34;94323.16;;;15.58;40.90
4469;BME280;2247;42.666;23.292;2023-02-23T07:22:01;94329.56;;;15.57;41.70
4469;BME280;2247;42.666;23.292;2023-02-23T07:24:27;94314.41;;;15.58;41.74
4469;BME280;2247;42.666;23.292;2023-02-23T07:26:57;94322.16;;;15.68;40.90
4469;BME280;2247;42.666;23.292;2023-02-23T07:29:23;94321.94;;;15.42;42.05
4469;BME280;2247;42.666;23.292;2023-02-23T07:31:53;94320.38;;;15.41;41.96
4469;BME280;2247;42.666;23.292;2023-02-23T07:34:20;94301.13;;;15.35;42.27
4469;BME280;2247;42.666;23.292;2023-02-23T07:36:49;94312.66;;;15.31;43.08
4469;BME280;2247;42.666;23.292;2023-02-23T07:39:16;94311.31;;;15.42;41.25
4469;BME280;2247;42.666;23.292;2023-02-23T07:41:43;94303.94;;;15.17;41.66
4469;BME280;2247;42.666;23.292;2023-02-23T07:44:11;94299.00;;;15.02;43.08
4469;BME280;2247;42.666;23.292;2023-02-23T07:46:38;94309.56;;;15.15;42.64
4469;BME280;2247;42.666;23.292;2023-02-23T07:49:06;94314.09;;;15.37;42.33
4469;BME280;2247;42.666;23.292;2023-02-23T07:51:34;94297.78;;;15.52;45.17
4469;BME280;2247;42.666;23.292;2023-02-23T07:54:03;94298.88;;;15.51;42.83
4469;BME280;2247;42.666;23.292;2023-02-23T07:56:30;94304.00;;;15.70;41.76
4469;BME280;2247;42.666;23.292;2023-02-23T07:58:57;94307.22;;;15.81;41.06
4469;BME280;2247;42.666;23.292;2023-02-23T08:01:24;94304.50;;;15.72;40.68
4469;BME280;2247;42.666;23.292;2023-02-23T08:03:51;94299.19;;;15.72;43.60
4469;BME280;2247;42.666;23.292;2023-02-23T08:06:18;94289.00;;;15.96;43.53
4469;BME280;2247;42.666;23.292;2023-02-23T08:08:45;94300.09;;;16.38;42.37
4469;BME280;2247;42.666;23.292;2023-02-23T08:11:14;94303.72;;;16.50;40.56
4469;BME280;2247;42.666;23.292;2023-02-23T08:13:41;94295.91;;;16.54;41.80
4469;BME280;2247;42.666;23.292;2023-02-23T08:16:09;94289.84;;;16.62;40.57
4469;BME280;2247;42.666;23.292;2023-02-23T08:18:37;94278.13;;;16.72;42.64
4469;BME280;2247;42.666;23.292;2023-02-23T08:21:04;94299.28;;;17.03;42.94
4469;BME280;2247;42.666;23.292;2023-02-23T08:23:33;94304.59;;;17.03;40.56
4469;BME280;2247;42.666;23.292;2023-02-23T08:26:01;94301.50;;;17.01;39.32
4469;BME280;2247;42.666;23.292;2023-02-23T08:28:30;94307.91;;;17.17;39.54
4469;BME280;2247;42.666;23.292;2023-02-23T08:30:58;94300.06;;;17.12;39.85
4469;BME280;2247;42.666;23.292;2023-02-23T08:33:26;94298.31;;;16.81;41.70
4469;BME280;2247;42.666;23.292;2023-02-23T08:35:53;94302.88;;;16.98;40.38
4469;BME280;2247;42.666;23.292;2023-02-23T08:38:20;94290.50;;;17.11;39.43
4469;BME280;2247;42.666;23.292;2023-02-23T08:40:47;94301.78;;;17.25;39.03
4469;BME280;2247;42.666;23.292;2023-02-23T08:43:14;94300.88;;;17.21;38.58
4469;BME280;2247;42.666;23.292;2023-02-23T08:45:43;94275.34;;;16.94;41.87
4469;BME280;2247;42.666;23.292;2023-02-23T08:48:11;94298.34;;;17.16;39.33
4469;BME280;2247;42.666;23.292;2023-02-23T08:50:38;94285.16;;;16.76;41.28
4469;BME280;2247;42.666;23.292;2023-02-23T08:53:05;94292.66;;;16.74;39.85
4469;BME280;2247;42.666;23.292;2023-02-23T08:55:33;94281.88;;;16.62;40.80
4469;BME280;2247;42.666;23.292;2023-02-23T08:58:01;94290.66;;;16.97;39.41
4469;BME280;2247;42.666;23.292;2023-02-23T09:00:32;94279.22;;;16.97;39.77
4469;BME280;2247;42.666;23.292;2023-02-23T09:03:04;94284.56;;;17.14;39.39
4469;BME280;2247;42.666;23.292;2023-02-23T09:05:31;94298.81;;;17.18;38.61
4469;BME280;2247;42.666;23.292;2023-02-23T09:07:59;94290.22;;;17.12;39.07
4469;BME280;2247;42.666;23.292;2023-02-23T09:10:27;94291.75;;;17.22;38.91
4469;BME280;2247;42.666;23.292;2023-02-23T09:12:54;94291.16;;;17.08;40.37
4469;BME280;2247;42.666;23.292;2023-02-23T09:15:23;94279.41;;;16.91;40.26
4469;BME280;2247;42.666;23.292;2023-02-23T09:17:51;94292.38;;;17.02;39.70
4469;BME280;2247;42.666;23.292;2023-02-23T09:20:40;94283.78;;;16.79;40.95
4469;BME280;2247;42.666;23.292;2023-02-23T09:23:07;94279.03;;;16.67;40.61
4469;BME280;2247;42.666;23.292;2023-02-23T09:25:38;94269.03;;;16.64;41.87
4469;BME280;2247;42.666;23.292;2023-02-23T09:28:10;94265.16;;;16.79;40.25
4469;BME280;2247;42.666;23.292;2023-02-23T09:30:38;94284.72;;;17.09;39.15
4469;BME280;2247;42.666;23.292;2023-02-23T09:33:06;94289.72;;;17.27;39.27
4469;BME280;2247;42.666;23.292;2023-02-23T09:35:34;94290.53;;;17.19;39.29
4469;BME280;2247;42.666;23.292;2023-02-23T09:38:05;94289.41;;;17.03;38.84
4469;BME280;2247;42.666;23.292;2023-02-23T09:40:36;94301.63;;;16.87;41.32
4469;BME280;2247;42.666;23.292;2023-02-23T09:43:12;94286.91;;;16.98;40.20
4469;BME280;2247;42.666;23.292;2023-02-23T09:45:42;94291.94;;;17.00;39.66
4469;BME280;2247;42.666;23.292;2023-02-23T09:48:15;94282.84;;;16.92;39.66
4469;BME280;2247;42.666;23.292;2023-02-23T09:50:46;94282.50;;;16.68;41.34
4469;BME280;2247;42.666;23.292;2023-02-23T09:53:26;94290.03;;;16.83;39.44
4469;BME280;2247;42.666;23.292;2023-02-23T09:55:57;94283.91;;;16.65;40.75
4469;BME280;2247;42.666;23.292;2023-02-23T09:58:26;94282.19;;;16.69;41.22
4469;BME280;2247;42.666;23.292;2023-02-23T10:01:29;94275.63;;;16.84;40.58
4469;BME280;2247;42.666;23.292;2023-02-23T10:04:06;94266.88;;;16.92;40.12
4469;BME280;2247;42.666;23.292;2023-02-23T10:06:39;94277.84;;;17.08;39.04
4469;BME280;2247;42.666;23.292;2023-02-23T10:09:17;94286.13;;;16.98;39.50
4469;BME280;2247;42.666;23.292;2023-02-23T10:11:52;94276.88;;;17.04;39.26
4469;BME280;2247;42.666;23.292;2023-02-23T10:14:33;94248.72;;;16.85;38.89
4469;BME280;2247;42.666;23.292;2023-02-23T10:17:13;94247.63;;;16.86;39.70
4469;BME280;2247;42.666;23.292;2023-02-23T10:19:52;94266.25;;;17.12;39.41
4469;BME280;2247;42.666;23.292;2023-02-23T10:22:23;94265.59;;;17.24;39.11
4469;BME280;2247;42.666;23.292;2023-02-23T10:24:57;94255.41;;;17.09;39.10
4469;BME280;2247;42.666;23.292;2023-02-23T10:27:31;94259.81;;;16.87;39.73
4469;BME280;2247;42.666;23.292;2023-02-23T10:30:11;94255.44;;;17.00;39.49
4469;BME280;2247;42.666;23.292;2023-02-23T10:32:40;94251.50;;;16.89;39.89
4469;BME280;2247;42.666;23.292;2023-02-23T10:35:10;94253.38;;;16.88;39.47
4469;BME280;2247;42.666;23.292;2023-02-23T10:37:37;94253.25;;;16.93;40.42
4469;BME280;2247;42.666;23.292;2023-02-23T10:40:13;94241.97;;;17.05;40.17
4469;BME280;2247;42.666;23.292;2023-02-23T10:42:41;94243.69;;;17.10;40.50
4469;BME280;2247;42.666;23.292;2023-02-23T10:45:12;94235.84;;;17.13;38.97
4469;BME280;2247;42.666;23.292;2023-02-23T10:47:50;94243.50;;;17.32;39.29
4469;BME280;2247;42.666;23.292;2023-02-23T10:50:19;94232.09;;;17.14;39.30
4469;BME280;2247;42.666;23.292;2023-02-23T10:52:54;94235.69;;;17.10;41.08
4469;BME280;2247;42.666;23.292;2023-02-23T10:55:27;94228.47;;;17.10;41.00
4469;BME280;2247;42.666;23.292;2023-02-23T10:58:07;94211.09;;;17.13;39.54
4469;BME280;2247;42.666;23.292;2023-02-23T11:00:51;94225.50;;;16.94;40.36
4469;BME280;2247;42.666;23.292;2023-02-23T11:03:24;94223.50;;;17.00;41.51
4469;BME280;2247;42.666;23.292;2023-02-23T11:05:52;94210.31;;;17.04;39.02
4469;BME280;2247;42.666;23.292;2023-02-23T11:08:25;94214.38;;;17.10;41.26
4469;BME280;2247;42.666;23.292;2023-02-23T11:11:04;94212.69;;;17.05;41.39
4469;BME280;2247;42.666;23.292;2023-02-23T11:13:35;94199.97;;;17.11;39.98
4469;BME280;2247;42.666;23.292;2023-02-23T11:16:07;94207.00;;;17.32;38.88
4469;BME280;2247;42.666;23.292;2023-02-23T11:18:37;94196.75;;;17.43;38.37
4469;BME280;2247;42.666;23.292;2023-02-23T11:21:10;94194.63;;;17.28;38.27
4469;BME280;2247;42.666;23.292;2023-02-23T11:23:39;94199.28;;;17.48;37.63
4469;BME280;2247;42.666;23.292;2023-02-23T11:26:24;94195.22;;;17.42;37.42
4469;BME280;2247;42.666;23.292;2023-02-23T11:28:57;94192.88;;;17.41;38.95
4469;BME280;2247;42.666;23.292;2023-02-23T11:31:29;94188.16;;;17.46;37.58
4469;BME280;2247;42.666;23.292;2023-02-23T11:33:59;94185.31;;;17.43;38.34
4469;BME280;2247;42.666;23.292;2023-02-23T11:36:30;94183.41;;;17.60;40.04
4469;BME280;2247;42.666;23.292;2023-02-23T11:39:18;94183.25;;;17.65;37.78
4469;BME280;2247;42.666;23.292;2023-02-23T11:42:03;94188.25;;;17.67;37.56
4469;BME280;2247;42.666;23.292;2023-02-23T11:44:31;94179.03;;;17.56;39.36
4469;BME280;2247;42.666;23.292;2023-02-23T11:46:58;94183.91;;;17.45;39.08
4469;BME280;2247;42.666;23.292;2023-02-23T11:49:28;94179.66;;;17.61;37.72
4469;BME280;2247;42.666;23.292;2023-02-23T11:51:59;94175.84;;;17.71;37.36
4469;BME280;2247;42.666;23.292;2023-02-23T11:54:28;94189.84;;;17.68;37.69
4469;BME280;2247;42.666;23.292;2023-02-23T11:56:59;94175.72;;;17.67;37.71
4469;BME280;2247;42.666;23.292;2023-02-23T11:59:29;94154.91;;;17.61;37.24
4469;BME280;2247;42.666;23.292;2023-02-23T12:02:04;94167.81;;;17.80;38.22
4469;BME280;2247;42.666;23.292;2023-02-23T12:04:34;94156.69;;;17.78;37.61
4469;BME280;2247;42.666;23.292;2023-02-23T12:07:24;94143.72;;;17.76;37.33
4469;BME280;2247;42.666;23.292;2023-02-23T12:09:59;94167.97;;;17.83;37.22
4469;BME280;2247;42.666;23.292;2023-02-23T12:12:37;94151.22;;;17.74;36.78
4469;BME280;2247;42.666;23.292;2023-02-23T12:15:11;94165.69;;;18.02;36.46
4469;BME280;2247;42.666;23.292;2023-02-23T12:17:46;94137.72;;;17.79;36.09
4469;BME280;2247;42.666;23.292;2023-02-23T12:20:19;94147.16;;;17.77;36.82
4469;BME280;2247;42.666;23.292;2023-02-23T12:22:50;94157.63;;;17.82;36.98
4469;BME280;2247;42.666;23.292;2023-02-23T12:25:22;94150.72;;;17.81;38.02
4469;BME280;2247;42.666;23.292;2023-02-23T12:27:58;94154.78;;;17.87;39.40
4469;BME280;2247;42.666;23.292;2023-02-23T12:30:38;94148.94;;;17.93;38.15
4469;BME280;2247;42.666;23.292;2023-02-23T12:33:11;94150.31;;;17.99;36.58
4469;BME280;2247;42.666;23.292;2023-02-23T12:35:46;94132.34;;;17.88;37.39
4469;BME280;2247;42.666;23.292;2023-02-23T12:38:24;94151.38;;;18.07;38.06
4469;BME280;2247;42.666;23.292;2023-02-23T12:41:00;94144.03;;;18.04;38.02
4469;BME280;2247;42.666;23.292;2023-02-23T12:43:35;94150.31;;;17.99;36.87
4469;BME280;2247;42.666;23.292;2023-02-23T12:46:08;94139.75;;;17.82;37.71
4469;BME280;2247;42.666;23.292;2023-02-23T12:48:46;94151.56;;;18.02;35.95
4469;BME280;2247;42.666;23.292;2023-02-23T12:51:21;94150.06;;;18.13;37.75
4469;BME280;2247;42.666;23.292;2023-02-23T12:53:50;94150.34;;;18.20;36.58
4469;BME280;2247;42.666;23.292;2023-02-23T12:56:35;94139.31;;;18.01;36.75
4469;BME280;2247;42.666;23.292;2023-02-23T12:59:23;94132.97;;;17.85;37.12
4469;BME280;2247;42.666;23.292;2023-02-23T13:01:56;94138.69;;;18.04;36.60
4469;BME280;2247;42.666;23.292;2023-02-23T13:04:44;94133.56;;;18.20;36.47
4469;BME280;2247;42.666;23.292;2023-02-23T13:07:20;94137.00;;;18.20;36.05
4469;BME280;2247;42.666;23.292;2023-02-23T13:09:59;94135.00;;;18.38;36.37
4469;BME280;2247;42.666;23.292;2023-02-23T13:12:38;94141.63;;;18.11;36.92
4469;BME280;2247;42.666;23.292;2023-02-23T13:15:17;94142.81;;;18.22;36.72
4469;BME280;2247;42.666;23.292;2023-02-23T13:17:53;94129.06;;;18.12;36.95
4469;BME280;2247;42.666;23.292;2023-02-23T13:20:26;94127.88;;;18.00;37.72
4469;BME280;2247;42.666;23.292;2023-02-23T13:23:14;94119.66;;;17.85;38.35
4469;BME280;2247;42.666;23.292;2023-02-23T13:25:51;94136.94;;;17.79;38.28
4469;BME280;2247;42.666;23.292;2023-02-23T13:28:39;94123.09;;;17.85;38.32
4469;BME280;2247;42.666;23.292;2023-02-23T13:31:20;94124.91;;;18.02;38.97
4469;BME280;2247;42.666;23.292;2023-02-23T13:33:48;94134.03;;;17.92;37.81
4469;BME280;2247;42.666;23.292;2023-02-23T13:36:16;94130.88;;;17.69;38.25
4469;BME280;2247;42.666;23.292;2023-02-23T13:38:56;94115.06;;;17.64;37.91
4469;BME280;2247;42.666;23.292;2023-02-23T13:41:38;94125.84;;;17.77;38.15
4469;BME280;2247;42.666;23.292;2023-02-23T13:44:14;94133.25;;;17.92;37.88
4469;BME280;2247;42.666;23.292;2023-02-23T13:46:49;94130.78;;;17.87;38.24
4469;BME280;2247;42.666;23.292;2023-02-23T13:49:31;94126.19;;;17.66;38.35
4469;BME280;2247;42.666;23.292;2023-02-23T13:52:10;94104.75;;;17.63;38.39
4469;BME280;2247;42.666;23.292;2023-02-23T13:54:50;94138.78;;;17.87;38.79
4469;BME280;2247;42.666;23.292;2023-02-23T13:57:21;94116.72;;;17.78;38.53
4469;BME280;2247;42.666;23.292;2023-02-23T13:59:49;94138.31;;;17.85;38.05
4469;BME280;2247;42.666;23.292;2023-02-23T14:02:32;94105.69;;;17.50;38.35
4469;BME280;2247;42.666;23.292;2023-02-23T14:05:05;94129.59;;;17.76;37.96
4469;BME280;2247;42.666;23.292;2023-02-23T14:07:41;94135.38;;;17.78;38.09
4469;BME280;2247;42.666;23.292;2023-02-23T14:10:16;94135.13;;;17.91;38.32
4469;BME280;2247;42.666;23.292;2023-02-23T14:13:04;94137.03;;;17.91;37.77
4469;BME280;2247;42.666;23.292;2023-02-23T14:15:44;94131.47;;;18.04;37.15
4469;BME280;2247;42.666;23.292;2023-02-23T14:18:31;94135.63;;;18.14;37.58
4469;BME280;2247;42.666;23.292;2023-02-23T14:21:04;94128.66;;;18.01;37.85
4469;BME280;2247;42.666;23.292;2023-02-23T14:23:49;94130.53;;;18.00;37.87
4469;BME280;2247;42.666;23.292;2023-02-23T14:26:36;94127.66;;;17.85;37.79
4469;BME280;2247;42.666;23.292;2023-02-23T14:29:29;94139.38;;;17.92;37.96
4469;BME280;2247;42.666;23.292;2023-02-23T14:32:01;94140.31;;;17.96;37.25
4469;BME280;2247;42.666;23.292;2023-02-23T14:34:50;94130.88;;;17.69;38.75
4469;BME280;2247;42.666;23.292;2023-02-23T14:37:22;94136.91;;;17.87;38.92
4469;BME280;2247;42.666;23.292;2023-02-23T14:39:52;94120.31;;;17.82;38.89
4469;BME280;2247;42.666;23.292;2023-02-23T14:42:23;94119.78;;;17.88;39.56
4469;BME280;2247;42.666;23.292;2023-02-23T14:44:52;94128.38;;;17.94;39.76
4469;BME280;2247;42.666;23.292;2023-02-23T14:47:21;94103.22;;;17.83;39.56